Time;durP1;ratioP1;P1;durP2;ratioP2;P2;SDS_P1;SDS_P2;PMS_P1;PMS_P2;Temp;Humidity;BMP_temperature;BMP_pressure;BME280_temperature;BME280_humidity;BME280_pressure;Samples;Min_cycle;Max_cycle;Signal;HPM_P1;HPM_P2
2022/07/02 14:56:13;;;;;;;6.60;5.90;;;;;;;36.05;32.72;99260.03;5087312;27;20922;-90
2022/07/02 14:58:40;;;;;;;6.95;5.78;;;;;;;35.97;32.73;99260.56;5068721;28;20299;-93
2022/07/02 15:01:08;;;;;;;10.15;5.85;;;;;;;35.81;33.11;99252.69;5067920;28;20206;-93
2022/07/02 15:03:35;;;;;;;6.53;5.75;;;;;;;35.80;34.33;99259.03;5067885;28;20252;-94
2022/07/02 15:06:02;;;;;;;7.78;5.93;;;;;;;35.80;33.58;99263.56;5067196;28;20199;-94
2022/07/02 15:08:31;;;;;;;6.90;6.07;;;;;;;35.74;34.62;99260.13;5068459;28;20230;-93
2022/07/02 15:11:01;;;;;;;7.88;6.10;;;;;;;35.46;34.49;99247.44;5067813;28;20209;-94
2022/07/02 15:15:59;;;;;;;10.13;5.93;;;;;;;35.18;34.40;99252.31;5313905;22;20941;-87
2022/07/02 15:16:29;;;;;;;11.48;5.55;;;;;;;35.10;35.49;99263.47;5025573;28;20317;-91
2022/07/02 15:18:58;;;;;;;7.65;6.20;;;;;;;35.15;33.40;99264.28;5034496;28;20227;-95
2022/07/02 15:21:30;;;;;;;6.28;5.65;;;;;;;35.15;34.39;99266.13;5050417;28;20206;-92
2022/07/02 15:24:04;;;;;;;7.10;6.10;;;;;;;34.85;33.53;99265.06;5050966;28;20231;-94
2022/07/02 15:26:36;;;;;;;8.35;7.05;;;;;;;34.58;35.06;99248.59;5050442;28;20286;-95
2022/07/02 15:29:07;;;;;;;16.90;12.52;;;;;;;34.70;36.27;99243.81;5049096;28;20215;-95
2022/07/02 15:31:43;;;;;;;10.27;8.82;;;;;;;34.83;34.42;99256.56;5049119;28;20282;-95
2022/07/02 15:34:17;;;;;;;7.80;6.93;;;;;;;34.70;35.59;99235.84;5049017;28;20236;-94
2022/07/02 15:36:49;;;;;;;8.30;7.40;;;;;;;34.64;34.75;99231.59;5052151;28;20263;-94
2022/07/02 15:39:19;;;;;;;11.40;8.85;;;;;;;34.49;35.31;99229.69;5049106;28;20223;-92
2022/07/02 15:41:47;;;;;;;11.95;6.65;;;;;;;34.22;34.93;99230.72;5052598;28;20208;-95
2022/07/02 15:44:21;;;;;;;11.43;6.68;;;;;;;33.90;35.64;99222.94;5050842;28;20277;-94
2022/07/02 15:46:48;;;;;;;7.80;5.80;;;;;;;33.57;35.27;99224.94;5046477;28;20625;-93
2022/07/02 15:49:16;;;;;;;7.80;6.07;;;;;;;33.62;35.62;99226.78;5046752;28;20613;-94
2022/07/02 15:51:51;;;;;;;9.85;6.38;;;;;;;33.79;35.96;99234.56;5046383;28;20199;-92
2022/07/02 15:54:27;;;;;;;11.93;6.22;;;;;;;33.88;36.43;99240.16;5046393;28;20238;-93
2022/07/02 15:57:08;;;;;;;8.80;6.05;;;;;;;33.85;36.01;99240.69;5046874;28;20234;-90
2022/07/02 15:59:38;;;;;;;10.43;5.93;;;;;;;33.78;35.71;99246.22;5045846;28;20219;-90
2022/07/02 16:02:06;;;;;;;10.02;5.82;;;;;;;33.67;36.26;99247.25;5045827;28;20208;-92
2022/07/02 16:04:35;;;;;;;8.50;5.97;;;;;;;33.54;37.65;99257.28;5044859;28;20306;-91
2022/07/02 16:07:10;;;;;;;12.77;6.18;;;;;;;33.55;37.72;99258.84;5034528;28;20196;-91
2022/07/02 16:09:41;;;;;;;10.25;6.38;;;;;;;33.49;38.20;99275.75;5031917;28;20321;-89
2022/07/02 16:12:09;;;;;;;10.52;6.50;;;;;;;33.32;39.48;99280.44;5032303;28;20216;-92
2022/07/02 16:14:39;;;;;;;9.93;6.95;;;;;;;33.33;43.02;99292.63;5033209;28;20236;-91
2022/07/02 16:17:12;;;;;;;9.82;6.55;;;;;;;33.09;44.10;99297.50;5033114;28;20254;-91
2022/07/02 16:19:40;;;;;;;18.02;7.35;;;;;;;32.52;46.51;99304.09;5031538;28;20710;-88
2022/07/02 16:22:09;;;;;;;8.85;6.70;;;;;;;32.44;47.36;99292.09;5032084;28;20282;-88
2022/07/02 16:24:37;;;;;;;9.73;7.00;;;;;;;31.93;47.99;99311.88;5032131;28;20698;-81
2022/07/02 16:27:05;;;;;;;13.82;7.30;;;;;;;31.98;50.32;99319.88;5032004;28;20259;-84
2022/07/02 16:29:32;;;;;;;9.70;6.97;;;;;;;31.88;49.48;99314.41;5031917;28;20731;-83
2022/07/02 16:32:01;;;;;;;10.30;7.15;;;;;;;31.46;50.24;99313.06;5031229;28;20246;-82
2022/07/02 16:34:37;;;;;;;10.80;7.32;;;;;;;31.11;49.63;99322.00;5031173;28;20652;-80
2022/07/02 16:37:11;;;;;;;14.07;7.18;;;;;;;30.74;49.25;99326.88;5031713;28;20195;-84
2022/07/02 16:39:50;;;;;;;9.85;7.20;;;;;;;30.56;49.67;99329.72;5033462;28;20664;-85
2022/07/02 16:42:19;;;;;;;12.48;7.35;;;;;;;30.55;50.07;99325.50;5032939;28;20677;-83
2022/07/02 16:44:48;;;;;;;12.90;6.82;;;;;;;30.44;50.33;99335.84;5032124;28;20216;-88
2022/07/02 16:47:23;;;;;;;8.48;7.15;;;;;;;30.28;51.30;99339.19;5031599;28;20197;-90
2022/07/02 16:49:52;;;;;;;7.60;6.40;;;;;;;30.24;51.09;99338.06;5032067;28;20369;-90
2022/07/02 16:52:27;;;;;;;9.25;7.00;;;;;;;30.21;51.09;99338.53;5032759;28;20201;-89
2022/07/02 16:54:54;;;;;;;10.02;7.30;;;;;;;30.10;51.56;99336.69;5031256;28;20239;-86
2022/07/02 16:57:26;;;;;;;9.02;6.90;;;;;;;29.87;52.85;99359.41;5031271;28;20212;-89
2022/07/02 16:59:54;;;;;;;11.38;7.50;;;;;;;29.94;52.83;99360.09;5031340;28;20748;-89
2022/07/02 17:02:24;;;;;;;11.45;7.00;;;;;;;29.93;53.24;99366.41;5031386;28;20196;-91
2022/07/02 17:04:53;;;;;;;16.05;7.50;;;;;;;29.94;53.36;99356.69;5031009;28;20224;-90
2022/07/02 17:07:25;;;;;;;12.20;6.50;;;;;;;29.88;53.50;99355.75;5031210;28;20262;-91
2022/07/02 17:09:53;;;;;;;8.40;6.85;;;;;;;29.88;53.80;99358.41;5031262;28;20283;-91
2022/07/02 17:12:22;;;;;;;12.73;6.95;;;;;;;29.64;53.83;99351.50;5031590;28;20207;-88
2022/07/02 17:14:49;;;;;;;8.13;6.80;;;;;;;29.54;53.60;99350.22;5031144;28;20235;-87
2022/07/02 17:17:17;;;;;;;10.82;7.25;;;;;;;29.48;54.21;99348.50;5030289;28;20216;-87
2022/07/02 17:19:45;;;;;;;9.90;6.90;;;;;;;29.53;55.34;99347.81;5030718;28;20230;-87
2022/07/02 17:22:23;;;;;;;12.70;6.53;;;;;;;29.51;54.39;99348.03;5035702;28;20223;-88
2022/07/02 17:24:50;;;;;;;10.65;6.65;;;;;;;29.35;55.02;99359.22;5037556;28;20314;-87
2022/07/02 17:27:18;;;;;;;10.07;6.43;;;;;;;29.29;54.15;99355.69;5036872;28;20208;-88
2022/07/02 17:29:53;;;;;;;10.32;6.70;;;;;;;29.18;54.23;99366.22;5036494;28;20228;-88
2022/07/02 17:32:20;;;;;;;13.27;6.57;;;;;;;29.16;54.70;99368.25;5035890;28;20581;-88
2022/07/02 17:34:50;;;;;;;9.98;6.82;;;;;;;29.19;55.38;99357.28;5036139;28;20240;-88
2022/07/02 17:37:18;;;;;;;11.45;7.15;;;;;;;29.15;54.80;99359.56;5036688;28;20203;-87
2022/07/02 17:39:48;;;;;;;10.50;6.78;;;;;;;29.24;55.10;99365.31;5037162;28;20224;-90
2022/07/02 17:42:15;;;;;;;9.88;6.55;;;;;;;29.25;53.71;99351.91;5037079;28;20207;-86
2022/07/02 17:44:42;;;;;;;12.57;6.90;;;;;;;29.08;53.82;99359.63;5037015;28;20266;-85
2022/07/02 17:47:09;;;;;;;9.98;6.53;;;;;;;29.10;55.22;99362.84;5031249;28;20211;-86
2022/07/02 17:49:40;;;;;;;11.02;6.57;;;;;;;29.00;54.68;99354.69;5030209;28;20228;-86
2022/07/02 17:52:13;;;;;;;12.98;7.15;;;;;;;29.02;55.13;99351.81;5030030;28;20240;-88
2022/07/02 17:54:43;;;;;;;11.50;6.53;;;;;;;28.79;55.15;99357.81;5029810;28;20307;-88
2022/07/02 17:57:18;;;;;;;14.52;7.07;;;;;;;28.58;55.63;99367.78;5030172;28;20231;-89
2022/07/02 17:59:49;;;;;;;7.00;6.30;;;;;;;28.58;55.06;99366.97;5030709;28;20247;-87
2022/07/02 18:02:18;;;;;;;7.53;5.75;;;;;;;28.46;55.36;99369.53;5029257;28;20851;-87
2022/07/02 18:04:45;;;;;;;9.45;6.15;;;;;;;28.47;54.57;99371.16;5029816;28;20285;-88
2022/07/02 18:07:14;;;;;;;10.63;5.78;;;;;;;28.38;55.03;99367.97;5029820;28;20227;-87
2022/07/02 18:09:43;;;;;;;9.10;6.30;;;;;;;28.49;54.86;99379.63;5029811;28;20501;-88
2022/07/02 18:12:13;;;;;;;10.38;6.40;;;;;;;28.45;55.20;99373.22;5029877;28;20200;-89
2022/07/02 18:14:41;;;;;;;9.38;6.40;;;;;;;28.37;54.84;99373.47;5029770;28;20743;-88
2022/07/02 18:17:13;;;;;;;13.13;6.53;;;;;;;28.23;55.61;99366.75;5030001;28;20204;-89
2022/07/02 18:19:43;;;;;;;10.55;6.10;;;;;;;28.18;55.78;99368.19;5030172;28;20231;-88
2022/07/02 18:22:10;;;;;;;9.25;6.40;;;;;;;28.14;55.71;99380.19;5029951;28;20204;-89
2022/07/02 18:24:40;;;;;;;8.23;6.43;;;;;;;28.04;56.52;99379.06;5030360;28;20235;-87
2022/07/02 18:27:09;;;;;;;9.10;6.45;;;;;;;27.98;56.32;99383.38;5029793;28;20196;-86
2022/07/02 18:29:45;;;;;;;11.82;6.85;;;;;;;27.90;57.39;99383.66;5029960;28;20768;-86
2022/07/02 18:32:12;;;;;;;9.40;6.20;;;;;;;27.82;57.10;99383.94;5028642;28;20220;-86
2022/07/02 18:34:39;;;;;;;9.02;6.68;;;;;;;27.80;57.88;99380.72;5029538;28;20228;-87
2022/07/02 18:37:11;;;;;;;10.00;6.40;;;;;;;27.76;57.84;99386.38;5029592;28;20241;-86
2022/07/02 18:39:40;;;;;;;10.18;6.45;;;;;;;27.75;57.67;99384.78;5030076;28;20224;-86
2022/07/02 18:42:09;;;;;;;9.52;6.30;;;;;;;27.70;58.67;99392.50;5029251;28;20207;-86
2022/07/02 18:44:37;;;;;;;11.48;6.70;;;;;;;27.69;58.05;99396.16;5029866;28;20231;-86
2022/07/02 18:47:10;;;;;;;9.45;6.53;;;;;;;27.70;58.21;99408.25;5029709;28;20203;-86
2022/07/02 18:49:37;;;;;;;8.90;6.97;;;;;;;27.70;58.43;99405.63;5029768;28;20230;-86
2022/07/02 18:52:04;;;;;;;8.80;6.05;;;;;;;27.67;58.49;99419.19;5029591;28;20600;-86
2022/07/02 18:54:31;;;;;;;7.28;6.43;;;;;;;27.62;58.88;99415.59;5029620;28;20309;-87
2022/07/02 18:57:06;;;;;;;8.80;6.07;;;;;;;27.54;58.55;99419.28;5029405;28;20236;-86
2022/07/02 18:59:41;;;;;;;7.50;6.60;;;;;;;27.44;59.14;99418.97;5029526;28;20285;-86
2022/07/02 19:02:13;;;;;;;8.70;5.75;;;;;;;27.38;59.20;99425.84;5029537;28;20553;-86
2022/07/02 19:04:44;;;;;;;8.95;6.25;;;;;;;27.31;59.40;99431.16;5029686;28;20278;-87
